Justiceburg, Texas
Current Conditions -  °F | °C
As of 5:55 AM on Friday 19 Dec 2014 (Local Time) from KSNK Reporting Station
Overcast Overcast  
Wind Chill: 32°   Ceiling: 800
Heat Index: 39°   Visibility: 7mi
Dew Point: 37°   Wind: 10mph
Humidity: 93%   Direction: 70°ENE
Pressure: 30.15"   Gusts: NA
Location:  33.04°N, 101.2°W
Report Text: KSNK 191155Z AUTO 07009KT 7SM OVC008 04/03 A3015 RMK AO2 LTG DSNT E T00370026
Loading
Personal Weather Stations






























Interactive Weather Map New forecast layout! Learn more

10-Day Weather Forecast

Advertisements
Track Severe Weather on mobile